地図

経路データ

SID SEASON NUMBER BASIN SUBBASIN NAME ISO_TIME NATURE LAT LON WMO_WIND WMO_PRES WMO_AGENCY TRACK_TYPE DIST2LAND LANDFALL IFLAG USA_AGENCY USA_ATCF_ID USA_LAT USA_LON USA_RECORD USA_STATUS USA_WIND USA_PRES USA_SSHS USA_R34_NE USA_R34_SE USA_R34_SW USA_R34_NW USA_R50_NE USA_R50_SE USA_R50_SW USA_R50_NW USA_R64_NE USA_R64_SE USA_R64_SW USA_R64_NW USA_POCI USA_ROCI USA_RMW USA_EYE TOKYO_LAT TOKYO_LON TOKYO_GRADE TOKYO_WIND TOKYO_PRES TOKYO_R50_DIR TOKYO_R50_LONG TOKYO_R50_SHORT TOKYO_R30_DIR TOKYO_R30_LONG TOKYO_R30_SHORT TOKYO_LAND CMA_LAT CMA_LON CMA_CAT CMA_WIND CMA_PRES HKO_LAT HKO_LON HKO_CAT HKO_WIND HKO_PRES NEWDELHI_LAT NEWDELHI_LON NEWDELHI_GRADE NEWDELHI_WIND NEWDELHI_PRES NEWDELHI_CI NEWDELHI_DP NEWDELHI_POCI REUNION_LAT REUNION_LON REUNION_TYPE REUNION_WIND REUNION_PRES REUNION_TNUM REUNION_CI REUNION_RMW REUNION_R34_NE REUNION_R34_SE REUNION_R34_SW REUNION_R34_NW REUNION_R50_NE REUNION_R50_SE REUNION_R50_SW REUNION_R50_NW REUNION_R64_NE REUNION_R64_SE REUNION_R64_SW REUNION_R64_NW BOM_LAT BOM_LON BOM_TYPE BOM_WIND BOM_PRES BOM_TNUM BOM_CI BOM_RMW BOM_R34_NE BOM_R34_SE BOM_R34_SW BOM_R34_NW BOM_R50_NE BOM_R50_SE BOM_R50_SW BOM_R50_NW BOM_R64_NE BOM_R64_SE BOM_R64_SW BOM_R64_NW BOM_ROCI BOM_POCI BOM_EYE BOM_POS_METHOD BOM_PRES_METHOD NADI_LAT NADI_LON NADI_CAT NADI_WIND NADI_PRES WELLINGTON_LAT WELLINGTON_LON WELLINGTON_WIND WELLINGTON_PRES DS824_LAT DS824_LON DS824_STAGE DS824_WIND DS824_PRES TD9636_LAT TD9636_LON TD9636_STAGE TD9636_WIND TD9636_PRES TD9635_LAT TD9635_LON TD9635_WIND TD9635_PRES TD9635_ROCI NEUMANN_LAT NEUMANN_LON NEUMANN_CLASS NEUMANN_WIND NEUMANN_PRES MLC_LAT MLC_LON MLC_CLASS MLC_WIND MLC_PRES USA_GUST BOM_GUST BOM_GUST_PER REUNION_GUST REUNION_GUST_PER USA_SEAHGT USA_SEARAD_NE USA_SEARAD_SE USA_SEARAD_SW USA_SEARAD_NW STORM_SPEED STORM_DIR
1999107S12090 1999 29 SI MM HAMISH 1999-04-17 00:00:00 NR -11.5000 89.5000 main 1510 1448 O_____________ jtwc_sh SH331999 -11.5000 89.5000 25 -1 12 49
1999107S12090 1999 29 SI MM HAMISH 1999-04-17 03:00:00 NR -11.1202 89.9479 main 1448 1393 P_____________ SH331999 -11.1202 89.9479 25 -1 11 48
1999107S12090 1999 29 SI WA HAMISH 1999-04-17 06:00:00 NR -10.8000 90.3000 main 1393 1362 O_____________ jtwc_sh SH331999 -10.8000 90.3000 25 -1 8 44
1999107S12090 1999 29 SI WA HAMISH 1999-04-17 09:00:00 NR -10.5649 90.4948 main 1362 1330 P_____________ SH331999 -10.5649 90.4948 25 -1 6 31
1999107S12090 1999 29 SI WA HAMISH 1999-04-17 12:00:00 NR -10.3000 90.6000 main 1330 1291 O_____________ jtwc_sh SH331999 -10.3000 90.6000 25 -1 7 17
1999107S12090 1999 29 SI WA HAMISH 1999-04-17 15:00:00 NR -9.87249 90.7075 main 1291 1244 P_____________ SH331999 -9.87249 90.7075 25 -1 9 12
1999107S12090 1999 29 SI WA HAMISH 1999-04-17 18:00:00 NR -9.40000 90.8000 main 1244 1205 O_____________ jtwc_sh SH331999 -9.40000 90.8000 25 -1 9 11
1999107S12090 1999 29 SI WA HAMISH 1999-04-17 21:00:00 NR -8.96249 90.8850 main 1205 1167 P_____________ SH331999 -8.96249 90.8850 25 -1 8 14
1999107S12090 1999 29 SI WA HAMISH 1999-04-18 00:00:00 NR -8.60000 91.0000 main 1167 1136 O_____________ jtwc_sh SH331999 -8.60000 91.0000 25 -1 7 26
1999107S12090 1999 29 SI WA HAMISH 1999-04-18 03:00:00 NR -8.35501 91.1850 main 1136 1105 P_____________ SH331999 -8.35501 91.1850 25 -1 6 45
1999107S12090 1999 29 SI WA HAMISH 1999-04-18 06:00:00 NR -8.20000 91.4000 main 1105 1073 O_____________ jtwc_sh SH331999 -8.20000 91.4000 25 -1 5 52
1999107S12090 1999 29 SI WA HAMISH 1999-04-18 09:00:00 NR -8.03999 91.6000 main 1073 1057 P_____________ SH331999 -8.03999 91.6000 25 -1 4 63
1999107S12090 1999 29 SI WA HAMISH 1999-04-18 12:00:00 NR -8.00000 91.8000 main 1057 1048 O_____________ jtwc_sh SH331999 -8.00000 91.8000 25 -1 4 103
1999107S12090 1999 29 SI WA HAMISH 1999-04-18 15:00:00 NR -8.13251 92.0150 main 1048 1047 P_____________ SH331999 -8.13251 92.0150 25 -1 6 135
1999107S12090 1999 29 SI WA HAMISH 1999-04-18 18:00:00 NR -8.40000 92.2000 main 1055 1055 O_____________ jtwc_sh SH331999 -8.40000 92.2000 25 -1 7 154
1999107S12090 1999 29 SI WA HAMISH 1999-04-18 21:00:00 NR -8.75749 92.3225 main 1080 1080 P_____________ SH331999 -8.75749 92.3225 25 -1 7 164
1999107S12090 1999 29 SI WA HAMISH 1999-04-19 00:00:00 NR -9.10000 92.4000 main 1097 1097 O_____________ jtwc_sh SH331999 -9.10000 92.4000 25 -1 6 166
1999107S12090 1999 29 SI WA HAMISH 1999-04-19 03:00:00 NR -9.28749 92.4575 main 1107 1100 P_____________ SH331999 -9.28749 92.4575 25 -1 2 135
1999107S12090 1999 29 SI WA HAMISH 1999-04-19 06:00:00 TS -9.26667 92.5667 main 1100 1092 O____O______O_ jtwc_sh SH331999 -9.40000 92.5000 25 -1 -9.00000 92.7000 2 20 1002 1.50000 1.50000 -9.00000 92.7000 TC 25 1002 2 64
1999107S12090 1999 29 SI WA HAMISH 1999-04-19 09:00:00 TS -9.21748 92.6038 main 1092 1092 P____P______P_ SH331999 -9.46997 92.5201 30 -1 -8.96500 92.6874 2 22 1001 -8.96500 92.6874 TC 27 1001 2 102
1999107S12090 1999 29 SI WA HAMISH 1999-04-19 10:00:00 TS -9.29904 92.7151 25 1002 bom main 1093 1086 P____PO_____P_ SH331999 -9.49923 92.5352 31 -1 -8.96543 92.6876 2 23 1000 -10.5000 93.6000 20 25 1002 2.00000 215 3 5 -8.96543 92.6876 TC 28 1000 6 141
1999107S12090 1999 29 SI WA HAMISH 1999-04-19 12:00:00 TS -9.43369 92.7813 main 1095 1095 O____OP_____O_ jtwc_sh SH331999 -9.60000 92.6000 35 0 -9.00000 92.7000 2 25 1000 2.00000 2.00000 -10.8358 93.4692 20 25 1002 215 -9.00000 92.7000 TC 30 1000 7 158
1999107S12090 1999 29 SI WA HAMISH 1999-04-19 13:00:00 TS -9.60388 92.8391 25 1002 bom main 1113 1113 P____PO_____P_ SH331999 -9.68553 92.6683 35 0 -9.03951 92.7141 2 25 1000 -11.0000 93.4000 20 25 1002 2.00000 215 3 5 -9.03951 92.7141 TC 30 1000 10 165
1999107S12090 1999 29 SI WA HAMISH 1999-04-19 15:00:00 TS -9.89022 92.9066 main 1133 1133 P____PP_____P_ SH331999 -9.90508 92.8424 35 0 -9.18000 92.7627 2 25 1000 -11.2958 93.2588 20 25 1002 215 -9.18000 92.7627 TC 30 1000 8 167
1999107S12090 1999 29 SI WA HAMISH 1999-04-19 16:00:00 TS -10.0021 92.9333 25 1002 bom main 1142 1142 P____PO_____P_ SH331999 -10.0317 92.9352 35 0 -9.28839 92.7990 2 25 1000 -11.4000 93.2000 20 25 1002 2.00000 215 3 5 -9.28839 92.7990 TC 30 1000 7 164
1999107S12090 1999 29 SI WA HAMISH 1999-04-19 18:00:00 TS -10.2457 93.0070 main 1154 1154 O____OP_____O_ jtwc_sh SH331999 -10.3000 93.1000 35 0 -9.60000 92.9000 2 25 1000 2.00000 2.00000 -11.4830 93.1279 20 25 1000 179 -9.60000 92.9000 TC 30 1000 8 163
1999107S12090 1999 29 SI WA HAMISH 1999-04-19 19:00:00 TS -10.3893 93.0509 25 1000 bom main 1166 1166 P____PO_____P_ SH331999 -10.4224 93.1610 35 0 -9.81747 92.9713 2 25 1000 -11.5000 93.1000 20 25 1000 2.00000 161 3 5 -9.81747 92.9713 TC 30 1000 10 165
1999107S12090 1999 29 SI WA HAMISH 1999-04-19 21:00:00 TS -10.7348 93.1426 main 1194 1194 P____PP_____P_ SH331999 -10.6775 93.2525 35 0 -10.3476 93.1422 2 25 1000 -11.5667 93.0333 20 25 1000 161 -10.3476 93.1422 TC 30 1000 11 166
1999107S12090 1999 29 SI WA HAMISH 1999-04-19 22:00:00 TS -10.9211 93.1866 25 1000 bom main 1208 1217 P____PO_____P_ SH331999 -10.8121 93.2812 35 0 -10.6361 93.2326 2 25 1000 -11.6000 93.0000 20 25 1000 2.00000 161 3 5 -10.6361 93.2326 TC 30 1000 11 169
1999107S12090 1999 29 SI WA HAMISH 1999-04-20 00:00:00 TS -11.2877 93.2583 main 1240 1240 O____OP_____O_ jtwc_sh SH331999 -11.1000 93.3000 35 0 -11.2000 93.4000 2 25 1000 2.00000 2.00000 -11.6509 92.9333 20 25 1000 196 -11.2000 93.4000 TC 30 1000 11 168
1999107S12090 1999 29 SI WA HAMISH 1999-04-20 01:00:00 TS -11.4616 93.3036 25 1000 bom main 1260 1260 P____PO_____P_ SH331999 -11.2526 93.3026 35 0 -11.4468 93.5058 2 25 999 -11.7000 92.9000 20 25 1000 2.00000 215 3 5 -11.4468 93.5058 TC 30 999 11 168
1999107S12090 1999 29 SI WA HAMISH 1999-04-20 03:00:00 TS -11.8156 93.3712 main 1284 1284 P____PP_____P_ SH331999 -11.5774 93.2674 35 0 -11.9097 93.6919 2 25 999 -11.8654 92.8333 20 28 998 215 -11.9097 93.6919 TC 30 999 11 171
1999107S12090 1999 29 SI WA HAMISH 1999-04-20 04:00:00 TS -11.9980 93.3793 30 998 bom main 1303 1303 P____PO_____P_ SH331999 -11.7478 93.2278 35 0 -12.1222 93.7447 2 25 999 -12.0000 92.8000 20 30 998 2.50000 215 3 5 -12.1222 93.7447 TC 30 999 11 186
1999107S12090 1999 29 SI WA HAMISH 1999-04-20 06:00:00 TS -12.3729 93.3064 main 1348 1348 O____OP_____O_ jtwc_sh SH331999 -12.1000 93.1000 35 0 -12.5000 93.7000 2 25 999 2.00000 2.00000 -12.3916 92.7255 20 33 996 143 -12.5000 93.7000 TC 30 999 12 197
1999107S12090 1999 29 SI WA HAMISH 1999-04-20 07:00:00 TS -12.5570 93.2061 35 995 bom main 1373 1373 P____PO_____P_ SH331999 -12.2881 93.0172 36 0 -12.6700 93.5536 2 25 998 -12.6000 92.7000 30 35 995 3.00000 107 3 5 -12.6700 93.5536 TC 30 998 13 216
1999107S12090 1999 29 SI WA HAMISH 1999-04-20 09:00:00 TS -12.8851 92.9273 main 1418 1418 P____PP_____P_ SH331999 -12.6725 92.8027 40 0 -12.9606 93.0981 2 26 998 -12.9467 92.7103 30 38 991 107 -12.9606 93.0981 TC 32 998 13 223
1999107S12090 1999 29 SI WA HAMISH 1999-04-20 10:00:00 TS -13.0322 92.7581 40 990 bom main 1433 1448 P____PO_____P_ SH331999 -12.8595 92.6764 41 0 -13.0847 92.8279 2 27 997 -13.1000 92.7000 30 40 990 3.00000 107 3 5 -13.0847 92.8279 TC 33 997 13 231
1999107S12090 1999 29 SI WA HAMISH 1999-04-20 12:00:00 TS -13.2970 92.3964 main 1483 1483 O____OP_____O_ jtwc_sh SH331999 -13.2000 92.4000 45 0 -13.3000 92.3000 2 28 997 2.50000 2.50000 -13.3879 92.5855 30 46 986 178 -13.3000 92.3000 TC 35 997 13 233
1999107S12090 1999 29 SI WA HAMISH 1999-04-20 13:00:00 TS -13.4120 92.2357 50 985 bom main 1504 1504 P____PO_____P_ SH331999 -13.3474 92.2535 45 0 -13.4004 92.0946 2 28 996 -13.5000 92.5000 30 50 985 3.50000 215 3 5 -13.4004 92.0946 TC 35 996 11 237
1999107S12090 1999 29 SI WA HAMISH 1999-04-20 15:00:00 TS -13.5979 91.9264 main 1539 1539 P____PP_____P_ SH331999 -13.6026 91.9425 45 0 -13.5724 91.7248 2 29 996 -13.6442 92.3133 30 53 981 215 -13.5724 91.7248 TC 35 996 10 239
1999107S12090 1999 29 SI WA HAMISH 1999-04-20 16:00:00 TS -13.6778 91.7788 55 980 bom main 1554 1554 P____PO_____P_ SH331999 -13.7122 91.7872 45 0 -13.6496 91.5641 2 29 995 -13.7000 92.2000 30 55 980 4.00000 215 3 5 -13.6496 91.5641 TC 35 995 9 240
1999107S12090 1999 29 SI WA HAMISH 1999-04-20 18:00:00 TS -13.8353 91.5077 main 1581 1581 O____OP_____O_ jtwc_sh SH331999 -13.9000 91.5000 45 0 -13.8000 91.3000 2 30 995 2.50000 2.50000 -13.8412 91.9309 30 55 980 215 -13.8000 91.3000 TC 35 995 9 238
1999107S12090 1999 29 SI WA HAMISH 1999-04-20 19:00:00 TS -13.9112 91.3932 55 980 bom main 1596 1596 P____PO_____P_ SH331999 -13.9837 91.3749 45 0 -13.8806 91.1990 2 30 994 -13.9000 91.8000 30 55 980 4.00000 215 3 5 -13.8806 91.1990 TC 36 994 7 234
1999107S12090 1999 29 SI WA HAMISH 1999-04-20 21:00:00 TS -14.0389 91.2128 main 1617 1617 P____PP_____P_ SH331999 -14.1224 91.1548 45 0 -14.0423 91.0548 2 32 993 -13.9484 91.5866 30 55 980 215 -14.0423 91.0548 TC 40 993 6 231
1999107S12090 1999 29 SI WA HAMISH 1999-04-20 22:00:00 TS -14.1084 91.1403 55 980 bom main 1632 1632 P____PO_____P_ SH331999 -14.1829 91.0599 45 0 -14.1253 91.0006 2 33 992 -14.0000 91.5000 30 55 980 4.00000 215 3 5 -14.1253 91.0006 TC 41 992 6 217
1999107S12090 1999 29 SI WA HAMISH 1999-04-21 00:00:00 TS -14.2896 91.0153 main 1657 1657 O____OP_____O_ jtwc_sh SH331999 -14.3000 90.9000 45 0 -14.3000 90.9000 3 35 992 3.00000 3.00000 -14.2583 91.3613 30 55 980 179 -14.3000 90.9000 TC 45 992 7 213
1999107S12090 1999 29 SI WA HAMISH 1999-04-21 01:00:00 TS -14.3881 90.9512 55 980 bom main 1666 1672 P____PO_____P_ SH331999 -14.3640 90.8381 45 0 -14.3943 90.8333 3 35 991 -14.4000 91.3000 30 55 980 4.00000 161 3 5 -14.3943 90.8333 TC 45 991 7 213
1999107S12090 1999 29 SI WA HAMISH 1999-04-21 03:00:00 TS -14.5727 90.8292 main 1697 1697 P____PP_____P_ SH331999 -14.4924 90.7424 45 0 -14.5925 90.7000 3 35 991 -14.6133 91.1746 30 51 983 161 -14.5925 90.7000 TC 45 991 7 213
1999107S12090 1999 29 SI WA HAMISH 1999-04-21 04:00:00 TS -14.6619 90.7665 50 985 bom main 1706 1706 P____PO_____P_ SH331999 -14.5587 90.6994 45 0 -14.6946 90.6333 3 35 990 -14.7000 91.1000 30 50 985 3.50000 161 3 5 -14.6946 90.6333 TC 45 990 7 217
1999107S12090 1999 29 SI WA HAMISH 1999-04-21 06:00:00 TS -14.8327 90.6264 main 1727 1727 O____OP_____O_ jtwc_sh SH331999 -14.7000 90.6000 45 0 -14.9000 90.5000 3 35 990 3.00000 3.00000 -14.8309 90.9054 30 50 985 161 -14.9000 90.5000 TC 45 990 7 218
1999107S12090 1999 29 SI WA HAMISH 1999-04-21 07:00:00 TS -14.9220 90.5546 50 985 bom main 1737 1742 P____PO_____P_ SH331999 -14.7723 90.5359 45 0 -15.0078 90.4412 3 35 990 -14.9000 90.8000 30 50 985 3.50000 161 3 5 -15.0078 90.4412 TC 45 990 7 216
1999107S12090 1999 29 SI WA HAMISH 1999-04-21 09:00:00 TS -15.1187 90.4081 main 1767 1767 P____PP_____P_ SH331999 -14.9274 90.3874 45 0 -15.2224 90.3224 3 35 990 -15.1025 90.6000 30 43 988 161 -15.2224 90.3224 TC 45 990 7 217
1999107S12090 1999 29 SI WA HAMISH 1999-04-21 10:00:00 TS -15.2148 90.3288 40 990 bom main 1782 1782 P____PO_____P_ SH331999 -15.0120 90.3011 45 0 -15.3236 90.2570 3 35 990 -15.2000 90.5000 30 40 990 3.00000 161 3 5 -15.3236 90.2570 TC 45 990 7 223
1999107S12090 1999 29 SI WA HAMISH 1999-04-21 12:00:00 TS -15.3847 90.1520 main 1807 1807 O____OP_____O_ jtwc_sh SH331999 -15.2000 90.1000 45 0 -15.5000 90.1000 3 35 990 2.50000 3.00000 -15.3387 90.3079 30 36 993 196 -15.5000 90.1000 TC 45 990 7 228
1999107S12090 1999 29 SI WA HAMISH 1999-04-21 13:00:00 TS -15.4605 90.0475 35 995 bom main 1828 1828 P____PO_____P_ SH331999 -15.3079 89.9838 45 0 -15.5671 90.0030 3 35 990 -15.4000 90.2000 30 35 995 3.00000 215 3 5 -15.5671 90.0030 TC 45 990 8 237
1999107S12090 1999 29 SI MM HAMISH 1999-04-21 15:00:00 TS -15.6052 89.8053 main 1849 1849 P____PP_____P_ SH331999 -15.5425 89.7226 45 0 -15.6725 89.7799 3 35 991 -15.5333 89.9388 30 31 996 215 -15.6725 89.7799 TC 45 991 8 239
1999107S12090 1999 29 SI MM HAMISH 1999-04-21 16:00:00 TS -15.6741 89.6745 main 1864 1864 P____PO_____P_ SH331999 -15.6637 89.5830 45 0 -15.7163 89.6574 3 35 991 -15.6000 89.8000 20 30 998 2.50000 215 3 5 -15.7163 89.6574 TC 45 991 9 242
1999107S12090 1999 29 SI MM HAMISH 1999-04-21 18:00:00 TS -15.8103 89.4064 35 992 reunion main 1892 1892 O____OP_____O_ jtwc_sh SH331999 -15.9000 89.3000 45 0 -15.8000 89.4000 3 35 992 2.00000 3.00000 -15.7412 89.5254 20 30 998 215 -15.8000 89.4000 TC 45 992 9 242
1999107S12090 1999 29 SI MM HAMISH 1999-04-21 19:00:00 TS -15.8836 89.2697 main 1907 1913 P____PO_____P_ SH331999 -16.0136 89.1614 45 0 -15.8500 89.2750 3 34 992 -15.8000 89.4000 20 30 998 2.50000 215 3 5 -15.8500 89.2750 TC 43 992 9 242
1999107S12090 1999 29 SI MM HAMISH 1999-04-21 21:00:00 TS -16.0192 89.0031 main 1934 1934 P____PP_____P_ SH331999 -16.2300 88.8850 45 0 -15.9499 89.0149 3 32 993 -15.8746 89.1921 20 26 999 215 -15.9499 89.0149 TC 40 993 9 242
1999107S12090 1999 29 SI MM HAMISH 1999-04-21 22:00:00 TS -16.0935 88.8572 main 1950 1956 P____PO_____P_ SH331999 -16.3291 88.7509 45 0 -15.9999 88.8799 3 31 994 -15.9000 89.1000 20 25 1000 2.00000 215 3 5 -15.9999 88.8799 TC 38 994 9 243
1999107S12090 1999 29 SI MM HAMISH 1999-04-22 00:00:00 TS -16.2333 88.5667 30 995 reunion main 1977 1977 O____O______O_ jtwc_sh SH331999 -16.5000 88.5000 45 0 -16.1000 88.6000 2 30 995 2.00000 2.50000 20 -16.1000 88.6000 TC 35 995 9 246
1999107S12090 1999 29 SI MM HAMISH 1999-04-22 03:00:00 TS -16.3934 88.1416 main 2027 2027 P____P______P_ SH331999 -16.6799 88.1848 45 0 -16.2501 88.1200 2 30 996 -16.2501 88.1200 TC 35 996 8 249
1999107S12090 1999 29 SI MM HAMISH 1999-04-22 06:00:00 TS -16.5333 87.7667 30 997 reunion main 2055 2055 O____O______O_ jtwc_sh SH331999 -16.8000 87.9000 45 0 -16.4000 87.7000 2 30 997 2.00000 2.50000 -16.4000 87.7000 TC 35 997 7 244
1999107S12090 1999 29 SI MM HAMISH 1999-04-22 09:00:00 TS -16.6890 87.5208 main 2093 2093 P____P______P_ SH331999 -16.9224 87.6075 42 0 -16.5723 87.4774 2 29 997 -16.5723 87.4774 TC 35 997 5 239
1999107S12090 1999 29 SI MM HAMISH 1999-04-22 12:00:00 TS -16.8000 87.3000 28 998 reunion main 2115 2115 O____O______O_ jtwc_sh SH331999 -17.0000 87.3000 40 0 -16.7000 87.3000 2 28 998 2.00000 2.50000 -16.7000 87.3000 TC 35 998 5 253
1999107S12090 1999 29 SI MM HAMISH 1999-04-22 15:00:00 TS -16.8375 87.0034 main 2134 2134 P____P______P_ SH331999 -17.0374 86.9651 40 0 -16.7375 87.0225 2 26 999 -16.7375 87.0225 TC 32 999 6 270
1999107S12090 1999 29 SI MM HAMISH 1999-04-22 18:00:00 TS -16.8000 86.6667 25 1000 reunion main 2155 2155 O____O______O_ jtwc_sh SH331999 -17.0000 86.6000 40 0 -16.7000 86.7000 2 25 1000 2.00000 2.00000 -16.7000 86.7000 TC 30 1000 7 281
1999107S12090 1999 29 SI MM HAMISH 1999-04-22 21:00:00 TS -16.7058 86.3050 main 2174 2174 P____P______P_ SH331999 -16.8725 86.1999 40 0 -16.6225 86.3575 2 25 1000 -16.6225 86.3575 TC 30 1000 7 288
1999107S12090 1999 29 SI MM HAMISH 1999-04-23 00:00:00 TS -16.5667 85.9333 25 1000 reunion main 2193 2185 O____O______O_ jtwc_sh SH331999 -16.7000 85.8000 40 0 -16.5000 86.0000 2 25 1000 2.00000 2.00000 -16.5000 86.0000 TC 30 1000 8 293
1999107S12090 1999 29 SI MM HAMISH 1999-04-23 03:00:00 TS -16.4017 85.5658 main 2198 2198 P____P______P_ SH331999 -16.5350 85.4275 37 0 -16.3350 85.6349 2 25 1000 -16.3350 85.6349 TC 30 1000 7 294
1999107S12090 1999 29 SI MM HAMISH 1999-04-23 06:00:00 TS -16.2667 85.2333 25 1000 reunion main 2219 2211 O____O______O_ jtwc_sh SH331999 -16.4000 85.1000 35 0 -16.2000 85.3000 2 25 1000 2.00000 2.00000 -16.2000 85.3000 TC 30 1000 6 287
1999107S12090 1999 29 SI MM HAMISH 1999-04-23 09:00:00 TS -16.2249 84.9809 main 2226 2226 P____P______P_ SH331999 -16.3349 84.8426 35 0 -16.1699 85.0501 2 25 1001 -16.1699 85.0501 TC 30 1001 5 274
1999107S12090 1999 29 SI MM HAMISH 1999-04-23 12:00:00 TS -16.2333 84.7333 25 1002 reunion main 2249 2249 O____O______O_ jtwc_sh SH331999 -16.3000 84.6000 35 0 -16.2000 84.8000 2 25 1002 1.50000 2.00000 -16.2000 84.8000 TC 30 1002 6 268
1999107S12090 1999 29 SI MM HAMISH 1999-04-23 15:00:00 TS -16.2400 84.4025 main 2272 2272 P____P______P_ SH331999 -16.2350 84.3074 32 -1 -16.2426 84.4500 2 25 1002 -16.2426 84.4500 TC 30 1002 6 267
1999107S12090 1999 29 SI MM HAMISH 1999-04-23 18:00:00 TS -16.2636 84.0636 25 1003 reunion main 2303 2303 O____O______O_ jtwc_sh SH331999 -16.2000 84.0000 30 -1 -16.3000 84.1000 2 25 1003 1.50000 2.00000 -16.3000 84.1000 TC 30 1003 6 265
1999107S12090 1999 29 SI MM HAMISH 1999-04-23 21:00:00 TS -16.2864 83.7909 main 2326 2326 P____P______P_ SH331999 -16.2049 83.7074 27 -1 -16.3348 83.8574 2 25 1004 -16.3525 83.8250 TC 27 1004 5 261
1999107S12090 1999 29 SI MM HAMISH 1999-04-24 00:00:00 TS -16.3500 83.5000 25 1005 reunion main 2349 2349 O____O______O_ jtwc_sh SH331999 -16.3000 83.4000 25 -1 -16.4000 83.6000 2 25 1005 1.50000 1.50000 -16.4000 83.6000 TC 25 1005 7 250
1999107S12090 1999 29 SI MM HAMISH 1999-04-24 03:00:00 TS -16.5234 83.1218 main 2396 2396 P____P________ SH331999 -16.5199 83.0650 25 -1 -16.5303 83.2352 2 1006 TC 9 240
1999107S12090 1999 29 SI MM HAMISH 1999-04-24 06:00:00 TS -16.7800 82.7200 1007 reunion main 2450 2450 O____O________ jtwc_sh SH331999 -16.8000 82.7000 25 -1 -16.7000 82.8000 6 1007 9.90000 9 234
1999107S12090 1999 29 SI MM HAMISH 1999-04-24 09:00:00 NR -17.0648 82.3299 main 2504 2504 P_____________ SH331999 -17.0648 82.3299 25 -1 6 9 236
1999107S12090 1999 29 SI MM HAMISH 1999-04-24 12:00:00 NR -17.3000 81.9000 main 2551 2502 O_____________ jtwc_sh SH331999 -17.3000 81.9000 25 -1 10 247
1999107S12090 1999 29 SI MM HAMISH 1999-04-24 15:00:00 NR -17.4500 81.3722 main 2500 2435 P_____________ SH331999 -17.4500 81.3722 25 -1 11 254
1999107S12090 1999 29 SI MM HAMISH 1999-04-24 18:00:00 NR -17.6000 80.8000 main 2435 2379 O_____________ jtwc_sh SH331999 -17.6000 80.8000 25 -1 11 250
1999107S12090 1999 29 SI MM HAMISH 1999-04-24 21:00:00 NR -17.8271 80.2797 main 2379 2311 P_____________ SH331999 -17.8271 80.2797 25 -1 12 244
1999107S12090 1999 29 SI MM HAMISH 1999-04-25 00:00:00 NR -18.1000 79.7000 main 2311 2232 O_____________ jtwc_sh SH331999 -18.1000 79.7000 25 -1 14 246
1999107S12090 1999 29 SI MM HAMISH 1999-04-25 03:00:00 NR -18.3929 78.9427 main 2222 2144 P_____________ SH331999 -18.3929 78.9427 25 -1 15 247
1999107S12090 1999 29 SI MM HAMISH 1999-04-25 06:00:00 NR -18.7000 78.2000 main 2144 2087 O_____________ jtwc_sh SH331999 -18.7000 78.2000 25 -1 14 244
1999107S12090 1999 29 SI MM HAMISH 1999-04-25 09:00:00 NR -19.0023 77.6401 main 2077 2031 P_____________ SH331999 -19.0023 77.6401 25 -1 11 238
1999107S12090 1999 29 SI MM HAMISH 1999-04-25 12:00:00 NR -19.3000 77.2000 main 2031 O_____________ jtwc_sh SH331999 -19.3000 77.2000 25 -1 10 234

IBTrACS Databaseについて

本データベースは、米国NOAAが公開する1842年以降の世界の熱帯低気圧のベストトラックデータアーカイブInternational Best Track Archive for Climate Stewardship (IBTrACS)を、ウェブで閲覧しやすい形式に変換したものです。

最終更新日:2021-12-06